sensor_id;sensor_type;location;lat;lon;timestamp;pressure;altitude;pressure_sealevel;temperature;humidity
49877;BME280;35771;48.978;9.294;2022-09-28T00:02:14;97300.19;;;7.38;100.00
49877;BME280;35771;48.978;9.294;2022-09-28T00:04:40;97308.69;;;7.49;100.00
49877;BME280;35771;48.978;9.294;2022-09-28T00:07:07;97288.31;;;7.33;100.00
49877;BME280;35771;48.978;9.294;2022-09-28T00:09:33;97276.06;;;7.37;100.00
49877;BME280;35771;48.978;9.294;2022-09-28T00:12:00;97295.56;;;7.52;100.00
49877;BME280;35771;48.978;9.294;2022-09-28T00:14:28;97283.31;;;7.43;100.00
49877;BME280;35771;48.978;9.294;2022-09-28T00:16:56;97280.78;;;7.61;100.00
49877;BME280;35771;48.978;9.294;2022-09-28T00:19:23;97269.56;;;7.58;100.00
49877;BME280;35771;48.978;9.294;2022-09-28T00:21:49;97252.31;;;7.52;100.00
49877;BME280;35771;48.978;9.294;2022-09-28T00:24:16;97259.78;;;7.57;100.00
49877;BME280;35771;48.978;9.294;2022-09-28T00:26:46;97247.13;;;7.51;100.00
49877;BME280;35771;48.978;9.294;2022-09-28T00:29:19;97230.06;;;7.43;100.00
49877;BME280;35771;48.978;9.294;2022-09-28T00:31:50;97233.38;;;7.52;100.00
49877;BME280;35771;48.978;9.294;2022-09-28T00:34:17;97233.81;;;7.56;100.00
49877;BME280;35771;48.978;9.294;2022-09-28T00:36:45;97236.47;;;7.62;100.00
49877;BME280;35771;48.978;9.294;2022-09-28T00:39:13;97241.06;;;7.62;100.00
49877;BME280;35771;48.978;9.294;2022-09-28T00:41:40;97209.25;;;7.57;100.00
49877;BME280;35771;48.978;9.294;2022-09-28T00:44:37;97209.25;;;7.57;100.00
49877;BME280;35771;48.978;9.294;2022-09-28T00:47:39;97208.81;;;7.60;100.00
49877;BME280;35771;48.978;9.294;2022-09-28T00:50:12;97218.56;;;7.68;100.00
49877;BME280;35771;48.978;9.294;2022-09-28T00:52:43;97200.88;;;7.66;100.00
49877;BME280;35771;48.978;9.294;2022-09-28T00:55:14;97196.28;;;7.66;100.00
49877;BME280;35771;48.978;9.294;2022-09-28T00:57:45;97209.16;;;7.77;100.00
49877;BME280;35771;48.978;9.294;2022-09-28T01:00:14;97184.22;;;7.75;100.00
49877;BME280;35771;48.978;9.294;2022-09-28T01:02:43;97185.25;;;7.74;100.00
49877;BME280;35771;48.978;9.294;2022-09-28T01:05:10;97167.97;;;7.75;100.00
49877;BME280;35771;48.978;9.294;2022-09-28T01:07:38;97158.84;;;7.70;100.00
49877;BME280;35771;48.978;9.294;2022-09-28T01:10:06;97186.22;;;7.87;100.00
49877;BME280;35771;48.978;9.294;2022-09-28T01:12:33;97163.81;;;7.73;100.00
49877;BME280;35771;48.978;9.294;2022-09-28T01:15:00;97155.88;;;7.78;100.00
49877;BME280;35771;48.978;9.294;2022-09-28T01:17:33;97177.88;;;7.95;100.00
49877;BME280;35771;48.978;9.294;2022-09-28T01:26:33;97130.28;;;7.80;100.00
49877;BME280;35771;48.978;9.294;2022-09-28T01:29:12;97122.53;;;7.84;100.00
49877;BME280;35771;48.978;9.294;2022-09-28T01:31:45;97118.19;;;7.83;100.00
49877;BME280;35771;48.978;9.294;2022-09-28T01:34:18;97109.91;;;7.78;100.00
49877;BME280;35771;48.978;9.294;2022-09-28T01:36:48;97108.63;;;7.80;100.00
49877;BME280;35771;48.978;9.294;2022-09-28T01:39:20;97102.72;;;7.97;100.00
49877;BME280;35771;48.978;9.294;2022-09-28T01:41:53;97100.38;;;8.01;100.00
49877;BME280;35771;48.978;9.294;2022-09-28T01:44:23;97080.34;;;7.83;100.00
49877;BME280;35771;48.978;9.294;2022-09-28T01:46:51;97107.47;;;8.02;100.00
49877;BME280;35771;48.978;9.294;2022-09-28T01:49:20;97074.47;;;7.86;100.00
49877;BME280;35771;48.978;9.294;2022-09-28T01:51:52;97079.22;;;7.91;100.00
49877;BME280;35771;48.978;9.294;2022-09-28T01:54:25;97067.19;;;7.87;100.00
49877;BME280;35771;48.978;9.294;2022-09-28T01:56:57;97065.50;;;7.92;100.00
49877;BME280;35771;48.978;9.294;2022-09-28T01:59:28;97086.59;;;8.09;100.00
49877;BME280;35771;48.978;9.294;2022-09-28T02:02:00;97061.13;;;7.91;100.00
49877;BME280;35771;48.978;9.294;2022-09-28T02:04:31;97047.78;;;7.96;100.00
49877;BME280;35771;48.978;9.294;2022-09-28T02:07:02;97051.22;;;8.04;100.00
49877;BME280;35771;48.978;9.294;2022-09-28T02:09:34;97043.56;;;8.01;100.00
49877;BME280;35771;48.978;9.294;2022-09-28T02:12:07;97033.41;;;7.96;100.00
49877;BME280;35771;48.978;9.294;2022-09-28T02:14:37;97046.44;;;8.06;100.00
49877;BME280;35771;48.978;9.294;2022-09-28T02:17:05;97053.06;;;8.10;100.00
49877;BME280;35771;48.978;9.294;2022-09-28T02:19:32;97036.78;;;8.17;100.00
49877;BME280;35771;48.978;9.294;2022-09-28T02:22:02;97042.53;;;8.27;100.00
49877;BME280;35771;48.978;9.294;2022-09-28T02:24:37;97011.59;;;8.16;100.00
49877;BME280;35771;48.978;9.294;2022-09-28T02:27:12;97052.06;;;8.29;100.00
49877;BME280;35771;48.978;9.294;2022-09-28T02:29:39;97035.22;;;8.27;100.00
49877;BME280;35771;48.978;9.294;2022-09-28T02:32:06;97014.09;;;8.18;100.00
49877;BME280;35771;48.978;9.294;2022-09-28T02:34:34;97033.06;;;8.36;100.00
49877;BME280;35771;48.978;9.294;2022-09-28T02:37:01;97021.09;;;8.25;100.00
49877;BME280;35771;48.978;9.294;2022-09-28T02:39:27;97003.84;;;8.20;100.00
49877;BME280;35771;48.978;9.294;2022-09-28T02:42:01;97018.31;;;8.32;100.00
49877;BME280;35771;48.978;9.294;2022-09-28T02:44:56;97004.00;;;8.25;100.00
49877;BME280;35771;48.978;9.294;2022-09-28T02:47:34;96988.81;;;8.24;100.00
49877;BME280;35771;48.978;9.294;2022-09-28T02:50:12;97001.63;;;8.35;100.00
49877;BME280;35771;48.978;9.294;2022-09-28T02:52:57;96992.00;;;8.39;100.00
49877;BME280;35771;48.978;9.294;2022-09-28T02:55:39;96989.16;;;8.34;100.00
49877;BME280;35771;48.978;9.294;2022-09-28T02:58:19;97002.78;;;8.46;100.00
49877;BME280;35771;48.978;9.294;2022-09-28T03:00:52;96995.91;;;8.43;100.00
49877;BME280;35771;48.978;9.294;2022-09-28T03:03:27;96977.66;;;8.39;100.00
49877;BME280;35771;48.978;9.294;2022-09-28T03:05:59;96979.50;;;8.38;100.00
49877;BME280;35771;48.978;9.294;2022-09-28T03:08:31;96981.63;;;8.36;100.00
49877;BME280;35771;48.978;9.294;2022-09-28T03:11:01;96992.56;;;8.48;100.00
49877;BME280;35771;48.978;9.294;2022-09-28T03:13:29;96992.72;;;8.53;100.00
49877;BME280;35771;48.978;9.294;2022-09-28T03:16:09;96973.63;;;8.41;100.00
49877;BME280;35771;48.978;9.294;2022-09-28T03:18:35;97008.72;;;8.55;100.00
49877;BME280;35771;48.978;9.294;2022-09-28T03:21:03;96987.19;;;8.41;100.00
49877;BME280;35771;48.978;9.294;2022-09-28T03:23:29;97000.84;;;8.53;100.00
49877;BME280;35771;48.978;9.294;2022-09-28T03:25:56;96994.66;;;8.46;100.00
49877;BME280;35771;48.978;9.294;2022-09-28T03:28:22;97012.56;;;8.47;100.00
49877;BME280;35771;48.978;9.294;2022-09-28T03:30:50;97030.72;;;8.46;100.00
49877;BME280;35771;48.978;9.294;2022-09-28T03:33:18;97011.75;;;8.46;100.00
49877;BME280;35771;48.978;9.294;2022-09-28T03:35:46;97028.13;;;8.52;100.00
49877;BME280;35771;48.978;9.294;2022-09-28T03:38:13;97005.38;;;8.34;100.00
49877;BME280;35771;48.978;9.294;2022-09-28T03:40:39;97011.78;;;8.40;100.00
49877;BME280;35771;48.978;9.294;2022-09-28T03:43:06;97015.31;;;8.40;100.00
49877;BME280;35771;48.978;9.294;2022-09-28T03:45:32;97012.78;;;8.45;100.00
49877;BME280;35771;48.978;9.294;2022-09-28T03:47:59;97029.03;;;8.64;100.00
49877;BME280;35771;48.978;9.294;2022-09-28T03:50:27;97007.59;;;8.44;100.00
49877;BME280;35771;48.978;9.294;2022-09-28T03:52:53;97032.28;;;8.54;100.00
49877;BME280;35771;48.978;9.294;2022-09-28T03:55:20;97034.00;;;8.67;100.00
49877;BME280;35771;48.978;9.294;2022-09-28T03:57:52;97017.25;;;8.58;100.00
49877;BME280;35771;48.978;9.294;2022-09-28T04:00:19;97011.91;;;8.52;100.00
49877;BME280;35771;48.978;9.294;2022-09-28T04:02:45;97010.69;;;8.47;100.00
49877;BME280;35771;48.978;9.294;2022-09-28T04:05:12;97009.47;;;8.43;100.00
49877;BME280;35771;48.978;9.294;2022-09-28T04:07:39;97007.16;;;8.47;100.00
49877;BME280;35771;48.978;9.294;2022-09-28T04:10:07;97018.75;;;8.29;100.00
49877;BME280;35771;48.978;9.294;2022-09-28T04:12:34;97030.72;;;8.40;100.00
49877;BME280;35771;48.978;9.294;2022-09-28T04:15:00;97025.16;;;8.35;100.00
49877;BME280;35771;48.978;9.294;2022-09-28T04:17:27;97031.78;;;8.39;100.00
49877;BME280;35771;48.978;9.294;2022-09-28T04:19:53;97036.47;;;8.25;100.00
49877;BME280;35771;48.978;9.294;2022-09-28T04:22:20;97050.06;;;8.43;100.00
49877;BME280;35771;48.978;9.294;2022-09-28T04:24:48;97020.78;;;8.33;100.00
49877;BME280;35771;48.978;9.294;2022-09-28T04:27:15;97022.44;;;8.35;100.00
49877;BME280;35771;48.978;9.294;2022-09-28T04:29:59;97038.03;;;8.39;100.00
49877;BME280;35771;48.978;9.294;2022-09-28T04:32:25;97011.84;;;8.33;100.00
49877;BME280;35771;48.978;9.294;2022-09-28T04:34:52;97026.19;;;8.33;100.00
49877;BME280;35771;48.978;9.294;2022-09-28T04:37:19;97022.94;;;8.25;100.00
49877;BME280;35771;48.978;9.294;2022-09-28T04:39:45;97043.81;;;8.43;100.00
49877;BME280;35771;48.978;9.294;2022-09-28T04:42:13;97018.09;;;8.33;100.00
49877;BME280;35771;48.978;9.294;2022-09-28T04:44:40;97020.19;;;8.31;100.00
49877;BME280;35771;48.978;9.294;2022-09-28T04:47:06;97017.47;;;8.31;100.00
49877;BME280;35771;48.978;9.294;2022-09-28T04:49:32;97033.09;;;8.29;100.00
49877;BME280;35771;48.978;9.294;2022-09-28T04:52:01;97036.66;;;8.30;100.00
49877;BME280;35771;48.978;9.294;2022-09-28T04:54:27;97021.97;;;8.19;100.00
49877;BME280;35771;48.978;9.294;2022-09-28T04:56:54;97029.66;;;8.22;100.00
49877;BME280;35771;48.978;9.294;2022-09-28T04:59:22;97019.50;;;8.18;100.00
49877;BME280;35771;48.978;9.294;2022-09-28T05:01:48;97040.38;;;8.36;100.00
49877;BME280;35771;48.978;9.294;2022-09-28T05:04:15;97037.88;;;8.34;100.00
49877;BME280;35771;48.978;9.294;2022-09-28T05:06:41;97019.66;;;8.23;100.00
49877;BME280;35771;48.978;9.294;2022-09-28T05:09:08;97031.91;;;8.25;100.00
49877;BME280;35771;48.978;9.294;2022-09-28T05:11:34;97033.06;;;8.36;100.00
49877;BME280;35771;48.978;9.294;2022-09-28T05:14:01;97037.25;;;8.32;100.00
49877;BME280;35771;48.978;9.294;2022-09-28T05:16:28;97021.75;;;8.21;100.00
49877;BME280;35771;48.978;9.294;2022-09-28T05:18:58;97049.41;;;8.23;100.00
49877;BME280;35771;48.978;9.294;2022-09-28T05:21:24;97048.94;;;8.32;100.00
49877;BME280;35771;48.978;9.294;2022-09-28T05:23:52;97040.16;;;8.12;100.00
49877;BME280;35771;48.978;9.294;2022-09-28T05:26:20;97042.84;;;8.12;100.00
49877;BME280;35771;48.978;9.294;2022-09-28T05:28:47;97025.25;;;8.03;100.00
49877;BME280;35771;48.978;9.294;2022-09-28T05:31:14;97042.66;;;8.07;100.00
49877;BME280;35771;48.978;9.294;2022-09-28T05:33:41;97034.19;;;8.03;100.00
49877;BME280;35771;48.978;9.294;2022-09-28T05:36:08;97031.31;;;7.98;100.00
49877;BME280;35771;48.978;9.294;2022-09-28T05:38:35;97041.47;;;8.03;100.00
49877;BME280;35771;48.978;9.294;2022-09-28T05:41:03;97037.69;;;8.04;100.00
49877;BME280;35771;48.978;9.294;2022-09-28T05:43:30;97051.63;;;8.07;100.00
49877;BME280;35771;48.978;9.294;2022-09-28T05:45:57;97037.31;;;8.00;100.00
49877;BME280;35771;48.978;9.294;2022-09-28T05:48:24;97043.41;;;8.21;100.00
49877;BME280;35771;48.978;9.294;2022-09-28T05:50:53;97019.19;;;8.01;100.00
49877;BME280;35771;48.978;9.294;2022-09-28T05:53:20;97025.41;;;8.08;100.00
49877;BME280;35771;48.978;9.294;2022-09-28T05:55:47;97054.91;;;8.16;100.00
49877;BME280;35771;48.978;9.294;2022-09-28T05:58:13;97036.44;;;8.06;100.00
49877;BME280;35771;48.978;9.294;2022-09-28T06:00:40;97040.81;;;8.07;100.00
49877;BME280;35771;48.978;9.294;2022-09-28T06:03:09;97056.09;;;8.20;100.00
49877;BME280;35771;48.978;9.294;2022-09-28T06:05:37;97047.44;;;8.11;100.00
49877;BME280;35771;48.978;9.294;2022-09-28T06:08:07;97054.13;;;8.09;100.00
49877;BME280;35771;48.978;9.294;2022-09-28T06:10:34;97078.97;;;8.24;100.00
49877;BME280;35771;48.978;9.294;2022-09-28T06:13:01;97074.22;;;8.20;100.00
49877;BME280;35771;48.978;9.294;2022-09-28T06:15:29;97079.41;;;8.21;100.00
49877;BME280;35771;48.978;9.294;2022-09-28T06:17:57;97060.97;;;8.11;100.00
49877;BME280;35771;48.978;9.294;2022-09-28T06:20:24;97073.78;;;8.23;100.00
49877;BME280;35771;48.978;9.294;2022-09-28T06:22:51;97082.69;;;8.30;100.00
49877;BME280;35771;48.978;9.294;2022-09-28T06:25:19;97079.03;;;8.18;100.00
49877;BME280;35771;48.978;9.294;2022-09-28T06:27:57;97081.75;;;8.18;100.00
49877;BME280;35771;48.978;9.294;2022-09-28T06:30:24;97078.94;;;8.31;100.00
49877;BME280;35771;48.978;9.294;2022-09-28T06:32:53;97088.91;;;8.30;100.00
49877;BME280;35771;48.978;9.294;2022-09-28T06:35:20;97070.81;;;8.31;100.00
49877;BME280;35771;48.978;9.294;2022-09-28T06:37:47;97069.75;;;8.32;100.00
49877;BME280;35771;48.978;9.294;2022-09-28T06:40:14;97095.06;;;8.44;100.00
49877;BME280;35771;48.978;9.294;2022-09-28T06:42:42;97078.03;;;8.37;100.00
49877;BME280;35771;48.978;9.294;2022-09-28T06:45:08;97095.47;;;8.48;100.00
49877;BME280;35771;48.978;9.294;2022-09-28T06:47:36;97102.38;;;8.44;100.00
49877;BME280;35771;48.978;9.294;2022-09-28T06:50:02;97089.84;;;8.43;100.00
49877;BME280;35771;48.978;9.294;2022-09-28T06:52:35;97100.69;;;8.43;100.00
49877;BME280;35771;48.978;9.294;2022-09-28T06:55:01;97113.81;;;8.46;100.00
49877;BME280;35771;48.978;9.294;2022-09-28T06:57:28;97109.13;;;8.60;100.00
49877;BME280;35771;48.978;9.294;2022-09-28T06:59:55;97115.28;;;8.67;100.00
49877;BME280;35771;48.978;9.294;2022-09-28T07:02:22;97095.50;;;8.66;100.00
49877;BME280;35771;48.978;9.294;2022-09-28T07:04:48;97106.00;;;8.56;100.00
49877;BME280;35771;48.978;9.294;2022-09-28T07:07:15;97106.19;;;8.61;100.00
49877;BME280;35771;48.978;9.294;2022-09-28T07:09:43;97128.03;;;8.85;100.00
49877;BME280;35771;48.978;9.294;2022-09-28T07:12:10;97132.41;;;8.86;100.00
49877;BME280;35771;48.978;9.294;2022-09-28T07:14:37;97132.34;;;8.93;100.00
49877;BME280;35771;48.978;9.294;2022-09-28T07:17:06;97117.13;;;8.92;100.00
49877;BME280;35771;48.978;9.294;2022-09-28T07:19:33;97135.88;;;8.93;100.00
49877;BME280;35771;48.978;9.294;2022-09-28T07:22:00;97125.84;;;8.94;100.00
49877;BME280;35771;48.978;9.294;2022-09-28T07:24:27;97130.00;;;8.96;100.00
49877;BME280;35771;48.978;9.294;2022-09-28T07:26:54;97122.94;;;8.95;100.00
49877;BME280;35771;48.978;9.294;2022-09-28T07:29:21;97147.25;;;9.02;100.00
49877;BME280;35771;48.978;9.294;2022-09-28T07:31:47;97137.91;;;9.16;100.00
49877;BME280;35771;48.978;9.294;2022-09-28T07:34:15;97151.66;;;9.21;100.00
49877;BME280;35771;48.978;9.294;2022-09-28T07:36:42;97142.97;;;9.13;100.00
49877;BME280;35771;48.978;9.294;2022-09-28T07:39:09;97166.25;;;9.39;100.00
49877;BME280;35771;48.978;9.294;2022-09-28T07:41:36;97157.50;;;9.37;100.00
49877;BME280;35771;48.978;9.294;2022-09-28T07:44:03;97161.44;;;9.41;100.00
49877;BME280;35771;48.978;9.294;2022-09-28T07:46:31;97178.84;;;9.33;100.00
49877;BME280;35771;48.978;9.294;2022-09-28T07:48:58;97188.84;;;9.33;100.00
49877;BME280;35771;48.978;9.294;2022-09-28T07:51:26;97164.56;;;9.19;100.00
49877;BME280;35771;48.978;9.294;2022-09-28T07:53:52;97174.06;;;9.29;100.00
49877;BME280;35771;48.978;9.294;2022-09-28T07:56:19;97194.44;;;9.38;100.00
49877;BME280;35771;48.978;9.294;2022-09-28T07:58:46;97180.09;;;9.12;100.00
49877;BME280;35771;48.978;9.294;2022-09-28T08:01:13;97176.56;;;9.12;100.00
49877;BME280;35771;48.978;9.294;2022-09-28T08:03:41;97199.78;;;9.26;100.00
49877;BME280;35771;48.978;9.294;2022-09-28T08:06:11;97182.66;;;9.26;100.00
49877;BME280;35771;48.978;9.294;2022-09-28T08:08:40;97196.44;;;9.24;100.00
49877;BME280;35771;48.978;9.294;2022-09-28T08:11:09;97208.22;;;9.36;100.00
49877;BME280;35771;48.978;9.294;2022-09-28T08:13:36;97193.59;;;9.37;100.00
49877;BME280;35771;48.978;9.294;2022-09-28T08:16:03;97204.53;;;9.49;100.00
49877;BME280;35771;48.978;9.294;2022-09-28T08:18:30;97209.13;;;9.49;100.00
49877;BME280;35771;48.978;9.294;2022-09-28T08:20:56;97209.94;;;9.49;100.00
49877;BME280;35771;48.978;9.294;2022-09-28T08:23:42;97215.97;;;9.70;100.00
49877;BME280;35771;48.978;9.294;2022-09-28T08:26:08;97219.06;;;9.55;100.00
49877;BME280;35771;48.978;9.294;2022-09-28T08:28:35;97200.91;;;9.55;100.00
49877;BME280;35771;48.978;9.294;2022-09-28T08:31:01;97222.38;;;9.76;100.00
49877;BME280;35771;48.978;9.294;2022-09-28T08:33:28;97200.97;;;9.67;100.00
49877;BME280;35771;48.978;9.294;2022-09-28T08:35:56;97208.88;;;9.69;100.00
49877;BME280;35771;48.978;9.294;2022-09-28T08:38:23;97191.69;;;9.75;100.00
49877;BME280;35771;48.978;9.294;2022-09-28T08:41:01;97207.56;;;9.90;100.00
49877;BME280;35771;48.978;9.294;2022-09-28T08:46:23;97224.97;;;10.01;100.00
49877;BME280;35771;48.978;9.294;2022-09-28T08:48:54;97205.69;;;9.90;100.00
49877;BME280;35771;48.978;9.294;2022-09-28T08:51:27;97214.72;;;10.03;100.00
49877;BME280;35771;48.978;9.294;2022-09-28T08:53:59;97230.97;;;10.21;100.00
49877;BME280;35771;48.978;9.294;2022-09-28T08:56:37;97219.88;;;10.23;100.00
49877;BME280;35771;48.978;9.294;2022-09-28T08:59:11;97221.63;;;10.17;100.00
49877;BME280;35771;48.978;9.294;2022-09-28T09:01:42;97224.94;;;10.38;100.00
49877;BME280;35771;48.978;9.294;2022-09-28T09:04:11;97229.78;;;10.36;100.00
49877;BME280;35771;48.978;9.294;2022-09-28T09:06:53;97239.25;;;10.26;100.00
49877;BME280;35771;48.978;9.294;2022-09-28T09:09:30;97251.16;;;10.44;100.00
49877;BME280;35771;48.978;9.294;2022-09-28T09:12:08;97246.19;;;10.41;100.00
49877;BME280;35771;48.978;9.294;2022-09-28T09:14:46;97255.31;;;10.47;100.00
49877;BME280;35771;48.978;9.294;2022-09-28T09:17:21;97239.88;;;10.28;100.00
49877;BME280;35771;48.978;9.294;2022-09-28T09:19:53;97274.50;;;10.33;100.00
49877;BME280;35771;48.978;9.294;2022-09-28T09:22:33;97248.84;;;10.29;100.00
49877;BME280;35771;48.978;9.294;2022-09-28T09:25:16;97245.75;;;10.25;100.00
49877;BME280;35771;48.978;9.294;2022-09-28T09:27:55;97280.00;;;10.45;100.00
49877;BME280;35771;48.978;9.294;2022-09-28T09:30:30;97277.34;;;10.57;100.00
49877;BME280;35771;48.978;9.294;2022-09-28T09:33:28;97264.75;;;10.44;100.00
49877;BME280;35771;48.978;9.294;2022-09-28T09:36:08;97281.91;;;10.56;100.00
49877;BME280;35771;48.978;9.294;2022-09-28T09:38:50;97261.22;;;10.25;100.00
49877;BME280;35771;48.978;9.294;2022-09-28T09:41:34;97277.50;;;10.43;100.00
49877;BME280;35771;48.978;9.294;2022-09-28T09:47:28;97281.78;;;10.51;100.00
49877;BME280;35771;48.978;9.294;2022-09-28T09:50:02;97293.59;;;10.45;100.00
49877;BME280;35771;48.978;9.294;2022-09-28T09:52:33;97273.13;;;10.42;100.00
49877;BME280;35771;48.978;9.294;2022-09-28T09:55:04;97288.00;;;10.40;100.00
49877;BME280;35771;48.978;9.294;2022-09-28T09:57:41;97285.16;;;10.65;100.00
49877;BME280;35771;48.978;9.294;2022-09-28T10:00:11;97282.78;;;10.57;100.00
49877;BME280;35771;48.978;9.294;2022-09-28T10:02:41;97284.63;;;10.56;100.00
49877;BME280;35771;48.978;9.294;2022-09-28T10:05:17;97283.44;;;10.52;100.00
49877;BME280;35771;48.978;9.294;2022-09-28T10:07:50;97310.06;;;10.62;100.00
49877;BME280;35771;48.978;9.294;2022-09-28T10:10:21;97296.97;;;10.71;100.00
49877;BME280;35771;48.978;9.294;2022-09-28T10:12:50;97293.81;;;10.74;100.00
49877;BME280;35771;48.978;9.294;2022-09-28T10:15:22;97299.63;;;10.89;100.00
49877;BME280;35771;48.978;9.294;2022-09-28T10:17:50;97290.16;;;10.80;100.00
49877;BME280;35771;48.978;9.294;2022-09-28T10:20:17;97294.63;;;10.74;100.00
49877;BME280;35771;48.978;9.294;2022-09-28T10:22:44;97290.53;;;10.95;100.00
49877;BME280;35771;48.978;9.294;2022-09-28T10:25:11;97285.34;;;10.94;100.00
49877;BME280;35771;48.978;9.294;2022-09-28T10:27:42;97293.31;;;11.19;100.00
49877;BME280;35771;48.978;9.294;2022-09-28T10:30:16;97305.16;;;11.37;100.00
49877;BME280;35771;48.978;9.294;2022-09-28T10:32:44;97281.00;;;11.16;98.56
49877;BME280;35771;48.978;9.294;2022-09-28T10:35:20;97278.06;;;11.30;100.00
49877;BME280;35771;48.978;9.294;2022-09-28T10:37:49;97285.25;;;11.24;100.00
49877;BME280;35771;48.978;9.294;2022-09-28T10:40:26;97307.63;;;11.26;99.70
49877;BME280;35771;48.978;9.294;2022-09-28T10:42:59;97297.31;;;11.16;98.05
49877;BME280;35771;48.978;9.294;2022-09-28T10:45:26;97287.13;;;11.12;100.00
49877;BME280;35771;48.978;9.294;2022-09-28T10:47:54;97294.13;;;11.20;95.02
49877;BME280;35771;48.978;9.294;2022-09-28T10:50:23;97299.22;;;11.28;98.30
49877;BME280;35771;48.978;9.294;2022-09-28T10:52:50;97297.56;;;11.39;98.72
49877;BME280;35771;48.978;9.294;2022-09-28T10:55:28;97303.38;;;11.19;100.00
49877;BME280;35771;48.978;9.294;2022-09-28T10:57:56;97292.09;;;11.03;100.00
49877;BME280;35771;48.978;9.294;2022-09-28T11:00:36;97315.53;;;11.16;98.67
49877;BME280;35771;48.978;9.294;2022-09-28T11:03:04;97296.72;;;11.14;100.00
49877;BME280;35771;48.978;9.294;2022-09-28T11:05:33;97309.84;;;11.06;87.22
49877;BME280;35771;48.978;9.294;2022-09-28T11:08:04;97291.53;;;11.13;85.91
49877;BME280;35771;48.978;9.294;2022-09-28T11:10:32;97290.44;;;11.14;89.81
49877;BME280;35771;48.978;9.294;2022-09-28T11:12:59;97283.16;;;11.38;88.32
49877;BME280;35771;48.978;9.294;2022-09-28T11:15:27;97285.38;;;11.65;90.58
49877;BME280;35771;48.978;9.294;2022-09-28T11:17:54;97281.38;;;11.56;89.09
49877;BME280;35771;48.978;9.294;2022-09-28T11:20:31;97276.97;;;11.66;91.46
49877;BME280;35771;48.978;9.294;2022-09-28T11:23:16;97299.47;;;11.74;88.80
49877;BME280;35771;48.978;9.294;2022-09-28T11:25:55;97293.06;;;11.80;93.03
49877;BME280;35771;48.978;9.294;2022-09-28T11:28:28;97296.88;;;11.79;93.60
49877;BME280;35771;48.978;9.294;2022-09-28T11:30:58;97278.16;;;11.94;92.12
49877;BME280;35771;48.978;9.294;2022-09-28T11:33:29;97301.22;;;12.03;86.61
49877;BME280;35771;48.978;9.294;2022-09-28T11:36:06;97290.44;;;12.09;85.66
49877;BME280;35771;48.978;9.294;2022-09-28T11:38:39;97289.69;;;12.25;83.97
49877;BME280;35771;48.978;9.294;2022-09-28T11:41:26;97281.78;;;12.12;82.93
49877;BME280;35771;48.978;9.294;2022-09-28T11:44:15;97278.81;;;12.13;82.17
49877;BME280;35771;48.978;9.294;2022-09-28T11:46:51;97275.84;;;12.15;79.45
49877;BME280;35771;48.978;9.294;2022-09-28T11:49:28;97280.22;;;12.16;80.70
49877;BME280;35771;48.978;9.294;2022-09-28T11:52:00;97273.66;;;12.00;81.21
49877;BME280;35771;48.978;9.294;2022-09-28T11:54:36;97260.81;;;12.24;83.63
49877;BME280;35771;48.978;9.294;2022-09-28T11:57:05;97257.84;;;12.26;80.81
49877;BME280;35771;48.978;9.294;2022-09-28T11:59:50;97282.34;;;12.26;77.08
49877;BME280;35771;48.978;9.294;2022-09-28T12:02:22;97258.19;;;12.17;76.24
49877;BME280;35771;48.978;9.294;2022-09-28T12:04:54;97287.81;;;12.54;79.60
49877;BME280;35771;48.978;9.294;2022-09-28T12:07:24;97261.72;;;12.59;75.42
49877;BME280;35771;48.978;9.294;2022-09-28T12:09:57;97258.34;;;12.68;72.70
49877;BME280;35771;48.978;9.294;2022-09-28T12:12:29;97269.31;;;13.02;72.18
49877;BME280;35771;48.978;9.294;2022-09-28T12:15:00;97261.53;;;13.28;70.60
49877;BME280;35771;48.978;9.294;2022-09-28T12:17:33;97289.25;;;13.37;73.10
49877;BME280;35771;48.978;9.294;2022-09-28T12:20:09;97285.31;;;13.16;68.74
49877;BME280;35771;48.978;9.294;2022-09-28T12:22:43;97265.25;;;13.05;67.52
49877;BME280;35771;48.978;9.294;2022-09-28T12:25:11;97291.78;;;13.09;67.18
49877;BME280;35771;48.978;9.294;2022-09-28T12:27:43;97261.25;;;13.13;68.27
49877;BME280;35771;48.978;9.294;2022-09-28T12:30:13;97282.44;;;13.22;70.27
49877;BME280;35771;48.978;9.294;2022-09-28T12:32:44;97267.78;;;12.95;68.78
49877;BME280;35771;48.978;9.294;2022-09-28T12:35:14;97246.25;;;13.10;71.59
49877;BME280;35771;48.978;9.294;2022-09-28T12:37:52;97272.28;;;13.35;68.37
49877;BME280;35771;48.978;9.294;2022-09-28T12:40:30;97268.72;;;13.51;70.44
49877;BME280;35771;48.978;9.294;2022-09-28T12:43:07;97261.78;;;13.43;67.47
49877;BME280;35771;48.978;9.294;2022-09-28T12:45:55;97243.34;;;13.51;68.58
49877;BME280;35771;48.978;9.294;2022-09-28T12:48:39;97269.94;;;13.60;67.57
49877;BME280;35771;48.978;9.294;2022-09-28T12:51:17;97268.25;;;13.37;67.85
49877;BME280;35771;48.978;9.294;2022-09-28T12:54:03;97277.66;;;13.30;68.24
49877;BME280;35771;48.978;9.294;2022-09-28T12:56:40;97264.00;;;13.30;70.74
49877;BME280;35771;48.978;9.294;2022-09-28T12:59:15;97256.06;;;13.28;70.19
49877;BME280;35771;48.978;9.294;2022-09-28T13:02:06;97274.81;;;13.24;69.48
49877;BME280;35771;48.978;9.294;2022-09-28T13:04:55;97284.03;;;13.35;66.82
49877;BME280;35771;48.978;9.294;2022-09-28T13:07:32;97273.25;;;13.28;63.66
49877;BME280;35771;48.978;9.294;2022-09-28T13:10:10;97280.03;;;13.26;63.69
49877;BME280;35771;48.978;9.294;2022-09-28T13:12:49;97276.56;;;13.14;65.66
49877;BME280;35771;48.978;9.294;2022-09-28T13:15:30;97254.50;;;12.98;66.59
49877;BME280;35771;48.978;9.294;2022-09-28T13:18:03;97260.53;;;13.00;64.88
49877;BME280;35771;48.978;9.294;2022-09-28T13:21:03;97257.78;;;12.83;64.68
49877;BME280;35771;48.978;9.294;2022-09-28T13:23:34;97272.09;;;12.90;66.37
49877;BME280;35771;48.978;9.294;2022-09-28T13:26:10;97249.19;;;12.91;66.13
49877;BME280;35771;48.978;9.294;2022-09-28T13:28:40;97257.91;;;13.05;68.19
49877;BME280;35771;48.978;9.294;2022-09-28T13:31:08;97240.94;;;12.69;65.34